Time;durP1;ratioP1;P1;durP2;ratioP2;P2;SDS_P1;SDS_P2;PMS_P1;PMS_P2;Temp;Humidity;BMP_temperature;BMP_pressure;BME280_temperature;BME280_humidity;BME280_pressure;Samples;Min_cycle;Max_cycle;Signal;HPM_P1;HPM_P2
2021/08/01 00:01:23;;;;;;;4.40;2.72;;;;;;;16.12;79.50;98099.94;5053144;28;20040;-71
2021/08/01 00:03:49;;;;;;;4.95;2.55;;;;;;;16.32;80.36;98129.34;5037633;28;20027;-71
2021/08/01 00:06:15;;;;;;;10.15;3.22;;;;;;;16.37;82.21;98132.13;5049301;28;20021;-71
2021/08/01 00:08:40;;;;;;;4.72;2.70;;;;;;;16.35;81.47;98126.94;5047648;28;20084;-71
2021/08/01 00:11:05;;;;;;;4.72;2.80;;;;;;;16.47;79.58;98126.75;5053135;28;20031;-71
2021/08/01 00:13:31;;;;;;;9.55;3.58;;;;;;;16.33;82.63;98099.06;5036474;28;20035;-71
2021/08/01 00:15:57;;;;;;;11.77;3.70;;;;;;;16.29;83.76;98114.28;5054242;28;20035;-71
2021/08/01 00:18:22;;;;;;;6.97;2.83;;;;;;;16.46;82.10;98133.31;5050586;28;20025;-71
2021/08/01 00:20:49;;;;;;;5.68;3.15;;;;;;;16.27;82.74;98124.66;5054079;28;20033;-71
2021/08/01 00:23:14;;;;;;;10.65;3.60;;;;;;;16.09;84.56;98120.38;5053940;28;20540;-71
2021/08/01 00:25:39;;;;;;;6.55;3.58;;;;;;;15.90;88.04;98111.72;5054265;28;20033;-71
2021/08/01 00:28:05;;;;;;;8.02;3.47;;;;;;;15.86;87.61;98105.09;5035324;28;20088;-71
2021/08/01 00:30:30;;;;;;;5.53;3.30;;;;;;;15.96;87.68;98137.97;5046054;28;20029;-71
2021/08/01 00:32:55;;;;;;;7.72;3.65;;;;;;;15.90;88.94;98132.69;5036248;28;20051;-71
2021/08/01 00:35:21;;;;;;;6.93;3.70;;;;;;;15.64;88.84;98106.97;5053612;28;20403;-71
2021/08/01 00:37:46;;;;;;;9.48;4.00;;;;;;;15.47;89.00;98093.41;5053184;28;20032;-71
2021/08/01 00:40:11;;;;;;;8.02;4.18;;;;;;;15.50;89.88;98109.25;5036287;28;20498;-71
2021/08/01 00:42:37;;;;;;;8.35;4.28;;;;;;;15.51;91.75;98111.72;5040340;28;20029;-71
2021/08/01 00:45:03;;;;;;;9.52;5.13;;;;;;;15.66;93.06;98121.16;5054000;28;20463;-71
2021/08/01 00:47:28;;;;;;;11.70;4.20;;;;;;;15.65;92.50;98106.72;5052050;28;20032;-71
2021/08/01 00:49:54;;;;;;;14.95;4.75;;;;;;;15.67;91.25;98101.03;5035750;28;20025;-71
2021/08/01 00:52:19;;;;;;;9.07;4.00;;;;;;;15.70;91.33;98115.00;5049915;28;20119;-71
2021/08/01 00:54:45;;;;;;;6.50;4.65;;;;;;;15.52;92.51;98091.56;5033375;28;20026;-71
2021/08/01 00:57:10;;;;;;;10.25;4.82;;;;;;;15.64;92.03;98106.97;5045685;28;20084;-71
2021/08/01 00:59:38;;;;;;;10.95;4.68;;;;;;;15.57;91.40;98097.06;5053973;28;20033;-71
2021/08/01 01:02:08;;;;;;;10.95;4.80;;;;;;;15.67;91.42;98114.66;5056238;28;20078;-71
2021/08/01 01:04:36;;;;;;;9.45;4.68;;;;;;;15.60;91.71;98112.09;5038505;28;20036;-72
2021/08/01 01:07:13;;;;;;;8.00;4.30;;;;;;;15.51;91.71;98086.34;5032966;28;20033;-71
2021/08/01 01:09:52;;;;;;;7.78;4.40;;;;;;;15.67;90.63;98114.66;5055652;28;20517;-71
2021/08/01 01:12:22;;;;;;;8.80;4.50;;;;;;;15.54;90.91;98096.78;5036143;28;20073;-71
2021/08/01 01:14:50;;;;;;;9.55;4.18;;;;;;;15.55;90.77;98104.69;5035318;28;20024;-71
2021/08/01 01:17:21;;;;;;;8.93;4.65;;;;;;;15.56;92.71;98111.81;5053302;28;20074;-71
2021/08/01 01:20:21;;;;;;;7.10;3.85;;;;;;;15.64;92.80;98123.31;5053171;28;20055;-71
2021/08/01 01:23:18;;;;;;;10.32;4.85;;;;;;;15.67;92.10;98111.94;5053125;28;20510;-71
2021/08/01 01:25:58;;;;;;;5.32;3.92;;;;;;;15.69;92.04;98117.97;5039963;28;20049;-71
2021/08/01 01:28:29;;;;;;;8.32;3.83;;;;;;;15.75;90.55;98120.53;5035190;28;20021;-71
2021/08/01 01:31:18;;;;;;;10.00;4.35;;;;;;;15.91;91.54;98118.81;5035199;28;20049;-71
2021/08/01 01:33:51;;;;;;;6.03;4.10;;;;;;;15.96;91.51;98115.31;5033214;28;20078;-71
2021/08/01 01:36:24;;;;;;;6.78;4.03;;;;;;;15.76;91.70;98083.97;5036234;28;20394;-71
2021/08/01 01:38:50;;;;;;;10.35;4.05;;;;;;;15.91;92.28;98124.25;5048927;28;20017;-71
2021/08/01 01:41:17;;;;;;;7.18;3.65;;;;;;;15.80;92.57;98105.28;5054005;28;20111;-71
2021/08/01 01:43:43;;;;;;;6.30;4.13;;;;;;;15.73;93.67;98122.66;5053104;28;20025;-71
2021/08/01 01:46:10;;;;;;;10.77;4.38;;;;;;;15.52;94.29;98093.47;5035687;28;20028;-71
2021/08/01 01:48:37;;;;;;;8.82;4.40;;;;;;;15.68;94.83;98108.13;5052950;28;20483;-71
2021/08/01 01:51:04;;;;;;;7.60;3.95;;;;;;;15.44;94.74;98091.19;5047594;28;20544;-71
2021/08/01 01:53:29;;;;;;;9.77;4.43;;;;;;;15.46;96.28;98105.38;5047307;28;20053;-71
2021/08/01 01:55:55;;;;;;;5.72;4.22;;;;;;;15.37;96.13;98098.72;5016481;28;20494;-71
2021/08/01 01:58:20;;;;;;;6.28;3.97;;;;;;;15.60;95.17;98116.75;5045363;28;20028;-70
2021/08/01 02:00:46;;;;;;;8.85;4.00;;;;;;;15.69;94.73;98120.69;5051159;28;20148;-70
2021/08/01 02:03:11;;;;;;;11.10;4.53;;;;;;;15.68;94.85;98113.56;5033557;28;20037;-71
2021/08/01 02:05:37;;;;;;;8.88;4.47;;;;;;;15.62;95.51;98114.59;5034739;28;20394;-70
2021/08/01 02:08:02;;;;;;;7.93;4.25;;;;;;;15.58;95.88;98103.34;5032168;28;20020;-71
2021/08/01 02:10:58;;;;;;;5.63;4.10;;;;;;;15.66;96.34;98105.63;5034013;28;20093;-71
2021/08/01 02:13:30;;;;;;;7.75;4.22;;;;;;;15.65;96.71;98103.19;5016269;28;20583;-71
2021/08/01 02:15:58;;;;;;;5.47;3.83;;;;;;;15.43;96.63;98084.91;5032678;28;20519;-71
2021/08/01 02:18:49;;;;;;;7.88;4.10;;;;;;;15.44;97.43;98104.81;5043632;28;20112;-70
2021/08/01 02:21:18;;;;;;;8.70;4.57;;;;;;;15.17;98.38;98072.84;5037950;28;20475;-70
2021/08/01 02:23:44;;;;;;;;;;;;;;;15.36;98.87;98107.97;5040433;28;20116;-70
2021/08/01 02:26:13;;;;;;;8.10;5.00;;;;;;;15.34;99.38;98102.75;5056455;28;19923;-70
2021/08/01 02:28:41;;;;;;;9.50;5.18;;;;;;;15.36;99.93;98100.63;5051402;28;20220;-70
2021/08/01 02:31:07;;;;;;;10.18;5.38;;;;;;;15.47;98.97;98107.84;5047142;28;20055;-70
2021/08/01 02:33:34;;;;;;;11.98;5.10;;;;;;;15.31;97.68;98090.47;5044687;28;20500;-70
2021/08/01 02:36:03;;;;;;;12.27;5.63;;;;;;;15.25;98.55;98090.66;5041354;28;20025;-70
2021/08/01 02:38:29;;;;;;;8.03;4.97;;;;;;;15.41;97.71;98099.88;5041988;28;20112;-71
2021/08/01 02:40:57;;;;;;;8.68;5.78;;;;;;;15.31;99.38;98097.81;5036893;28;20272;-70
2021/08/01 02:43:27;;;;;;;9.15;5.97;;;;;;;15.26;99.87;98097.75;5048968;28;20508;-70
2021/08/01 02:45:53;;;;;;;9.10;5.15;;;;;;;15.18;100.00;98079.91;5055216;28;20041;-71
2021/08/01 02:48:21;;;;;;;9.63;5.90;;;;;;;15.29;100.00;98102.69;5050936;28;20043;-71
2021/08/01 02:50:52;;;;;;;10.70;6.20;;;;;;;15.31;100.00;98103.28;5052745;28;20036;-71
2021/08/01 02:53:18;;;;;;;13.15;6.43;;;;;;;15.30;100.00;98110.63;5052825;28;20025;-71
2021/08/01 02:55:48;;;;;;;9.55;5.63;;;;;;;15.10;100.00;98073.00;5052028;28;20112;-70
2021/08/01 02:58:13;;;;;;;;;;;;;;;15.19;100.00;98095.19;5052388;28;20029;-70
2021/08/01 03:00:41;;;;;;;10.57;6.22;;;;;;;15.07;100.00;98092.56;5053181;28;19912;-71
2021/08/01 03:03:07;;;;;;;11.13;6.65;;;;;;;14.85;100.00;98054.38;5042594;28;20121;-70
2021/08/01 03:05:34;;;;;;;9.07;5.95;;;;;;;15.19;100.00;98097.09;5051395;28;20040;-71
2021/08/01 03:07:59;;;;;;;12.00;6.50;;;;;;;15.16;100.00;98084.78;5044923;28;20026;-71
2021/08/01 03:10:25;;;;;;;10.50;5.90;;;;;;;15.21;100.00;98086.78;5039655;28;20052;-71
2021/08/01 03:12:51;;;;;;;11.13;5.35;;;;;;;15.13;100.00;98074.41;5043969;28;20034;-71
2021/08/01 03:15:16;;;;;;;8.52;5.70;;;;;;;15.21;100.00;98086.78;5044660;28;20151;-71
2021/08/01 03:17:42;;;;;;;9.77;5.50;;;;;;;15.25;99.41;98082.47;5027143;28;20116;-71
2021/08/01 03:20:09;;;;;;;14.88;6.13;;;;;;;15.32;100.00;98113.91;5039788;28;20028;-71
2021/08/01 03:22:35;;;;;;;11.57;5.80;;;;;;;15.20;100.00;98091.41;5055805;28;20040;-71
2021/08/01 03:25:01;;;;;;;8.98;6.35;;;;;;;15.29;100.00;98113.59;5036906;28;20025;-71
2021/08/01 03:27:27;;;;;;;9.23;5.97;;;;;;;15.18;100.00;98088.09;5045881;28;20056;-71
2021/08/01 03:29:52;;;;;;;8.50;5.70;;;;;;;15.15;100.00;98096.78;5053536;28;20033;-71
2021/08/01 03:32:18;;;;;;;8.55;6.20;;;;;;;15.24;100.00;98118.97;5049640;28;20041;-71
2021/08/01 03:34:44;;;;;;;9.32;5.88;;;;;;;15.26;100.00;98119.53;5053780;28;20025;-71
2021/08/01 03:37:09;;;;;;;11.50;6.00;;;;;;;15.24;100.00;98116.25;5055178;28;20095;-71
2021/08/01 03:39:35;;;;;;;15.18;7.38;;;;;;;15.26;100.00;98114.09;5039127;28;20017;-70
2021/08/01 03:42:02;;;;;;;9.32;5.72;;;;;;;15.30;100.00;98101.59;5056555;28;20020;-70
2021/08/01 03:44:27;;;;;;;8.07;6.20;;;;;;;15.35;100.00;98118.03;5048341;28;20065;-71
2021/08/01 03:46:53;;;;;;;18.83;6.82;;;;;;;15.28;100.00;98128.31;5035674;28;20479;-70
2021/08/01 03:49:18;;;;;;;9.60;6.50;;;;;;;15.29;100.00;98127.22;5048982;28;20072;-71
2021/08/01 03:51:43;;;;;;;10.50;5.93;;;;;;;15.22;100.00;98130.13;5048894;28;20228;-71
2021/08/01 03:54:08;;;;;;;13.30;6.63;;;;;;;15.20;100.00;98132.28;5054282;28;20486;-70
2021/08/01 03:56:43;;;;;;;12.63;6.68;;;;;;;15.21;100.00;98130.38;5054333;28;20382;-70
2021/08/01 03:59:08;;;;;;;9.10;5.80;;;;;;;15.05;100.00;98104.78;5036373;28;20025;-70
2021/08/01 04:01:34;;;;;;;12.93;6.75;;;;;;;15.17;100.00;98116.44;5054846;28;20036;-70
2021/08/01 04:03:59;;;;;;;11.95;6.35;;;;;;;15.14;100.00;98119.63;5052019;28;20021;-70
2021/08/01 04:06:24;;;;;;;9.25;6.43;;;;;;;15.16;100.00;98120.22;5054503;28;20024;-70
2021/08/01 04:08:50;;;;;;;11.85;5.97;;;;;;;15.08;100.00;98113.28;5045957;28;20522;-71
2021/08/01 04:11:15;;;;;;;9.25;6.60;;;;;;;15.22;100.00;98127.41;5034640;28;20033;-70
2021/08/01 04:13:40;;;;;;;12.70;6.22;;;;;;;15.13;100.00;98135.16;5035165;28;20510;-71
2021/08/01 04:16:09;;;;;;;9.10;6.50;;;;;;;15.12;100.00;98138.97;5053928;28;20029;-70
2021/08/01 04:18:34;;;;;;;10.53;6.47;;;;;;;15.15;100.00;98117.75;5052282;28;20020;-70
2021/08/01 04:21:00;;;;;;;9.02;6.05;;;;;;;15.21;100.00;98130.38;5029826;28;20028;-70
2021/08/01 04:23:25;;;;;;;14.02;6.97;;;;;;;15.22;100.00;98134.72;5049287;28;20029;-70
2021/08/01 04:25:50;;;;;;;13.07;6.88;;;;;;;15.22;100.00;98138.31;5036152;28;20531;-70
2021/08/01 04:28:16;;;;;;;11.32;7.03;;;;;;;15.13;100.00;98145.25;5044726;28;20020;-70
2021/08/01 04:30:41;;;;;;;12.25;6.75;;;;;;;15.14;100.00;98149.59;5053593;28;20086;-70
2021/08/01 04:33:06;;;;;;;9.30;6.55;;;;;;;15.12;100.00;98152.59;5052128;28;20044;-70
2021/08/01 04:35:32;;;;;;;11.70;6.78;;;;;;;15.09;100.00;98144.06;5054328;28;20093;-70
2021/08/01 04:37:57;;;;;;;12.30;6.72;;;;;;;14.92;100.00;98122.31;5053997;28;20029;-70
2021/08/01 04:40:22;;;;;;;11.45;6.90;;;;;;;15.00;100.00;98149.13;5055004;28;20013;-70
2021/08/01 04:42:48;;;;;;;11.50;6.70;;;;;;;14.99;100.00;98144.75;5053596;28;20021;-70
2021/08/01 04:45:13;;;;;;;8.88;6.32;;;;;;;15.04;100.00;98147.56;5054561;28;20028;-70
2021/08/01 04:47:38;;;;;;;9.80;6.53;;;;;;;15.00;100.00;98146.41;5053475;28;20025;-70
2021/08/01 04:50:04;;;;;;;11.63;6.32;;;;;;;15.14;100.00;98168.66;5054587;28;20033;-70
2021/08/01 04:52:29;;;;;;;8.77;5.85;;;;;;;15.09;100.00;98161.25;5049087;28;20057;-70
2021/08/01 04:54:55;;;;;;;10.75;5.90;;;;;;;14.98;100.00;98159.44;5051309;28;20059;-70
2021/08/01 04:57:20;;;;;;;9.93;6.53;;;;;;;15.00;100.00;98165.47;5054684;28;20033;-70
2021/08/01 04:59:45;;;;;;;10.95;6.18;;;;;;;14.86;100.00;98145.09;5045931;28;20029;-70
2021/08/01 05:02:11;;;;;;;14.73;6.32;;;;;;;14.93;100.00;98162.06;5045375;28;20104;-70
2021/08/01 05:04:36;;;;;;;10.30;6.15;;;;;;;14.84;100.00;98147.22;5053855;28;20021;-70
2021/08/01 05:09:32;;;;;;;12.02;6.78;;;;;;;14.90;100.00;98151.69;5051154;28;20402;-75
2021/08/01 05:11:58;;;;;;;11.95;6.55;;;;;;;14.93;100.00;98162.06;5053104;28;20036;-75
2021/08/01 05:14:23;;;;;;;9.85;6.18;;;;;;;14.99;100.00;98157.56;5045264;28;20029;-75
2021/08/01 05:16:48;;;;;;;7.90;5.47;;;;;;;15.04;100.00;98153.00;5024971;28;20028;-75
2021/08/01 05:19:14;;;;;;;10.98;5.97;;;;;;;15.08;100.00;98147.88;5039012;28;20018;-75
2021/08/01 05:21:39;;;;;;;9.75;6.05;;;;;;;15.15;100.00;98148.53;5033438;28;20061;-75
2021/08/01 05:24:04;;;;;;;10.88;5.55;;;;;;;15.24;100.00;98138.03;5052053;28;20055;-75
2021/08/01 05:26:30;;;;;;;9.65;5.82;;;;;;;15.29;100.00;98135.38;5053145;28;20028;-76
2021/08/01 05:28:55;;;;;;;9.35;5.68;;;;;;;15.26;100.00;98138.63;5033039;28;20386;-76
2021/08/01 05:31:20;;;;;;;8.57;5.43;;;;;;;15.31;100.00;98135.97;5052506;28;20461;-75
2021/08/01 05:33:46;;;;;;;11.05;6.05;;;;;;;15.26;100.00;98125.81;5052646;28;20017;-74
2021/08/01 05:36:11;;;;;;;11.90;5.65;;;;;;;15.36;100.00;98137.94;5039837;28;20470;-74
2021/08/01 05:38:38;;;;;;;8.93;5.30;;;;;;;15.45;100.00;98129.06;5032623;28;20048;-75
2021/08/01 05:41:04;;;;;;;7.38;5.20;;;;;;;15.46;100.00;98149.81;5045993;28;20071;-73
2021/08/01 05:43:30;;;;;;;8.40;5.10;;;;;;;15.30;100.00;98131.56;5046174;28;20067;-74
2021/08/01 05:45:56;;;;;;;8.48;5.40;;;;;;;15.35;100.00;98131.66;5046193;28;20457;-75
2021/08/01 05:48:21;;;;;;;10.40;5.75;;;;;;;15.38;100.00;98138.50;5053196;28;20029;-75
2021/08/01 05:50:46;;;;;;;9.23;5.18;;;;;;;15.40;100.00;98131.72;5029913;28;20174;-74
2021/08/01 05:53:12;;;;;;;6.97;4.80;;;;;;;15.48;100.00;98138.66;5026250;28;20111;-74
2021/08/01 05:55:37;;;;;;;7.93;4.85;;;;;;;15.47;100.00;98128.84;5048701;28;20394;-74
2021/08/01 05:58:04;;;;;;;7.45;4.50;;;;;;;15.44;100.00;98126.63;5023259;28;20028;-74
2021/08/01 06:00:30;;;;;;;5.70;4.20;;;;;;;15.46;100.00;98138.09;5052886;28;20378;-75
2021/08/01 06:02:55;;;;;;;7.60;5.32;;;;;;;15.39;100.00;98132.81;5053096;28;20032;-74
2021/08/01 06:05:20;;;;;;;8.70;5.28;;;;;;;15.44;100.00;98134.78;5042509;28;20418;-73
2021/08/01 06:07:46;;;;;;;7.70;5.28;;;;;;;15.63;100.00;98148.94;5033248;28;20376;-75
2021/08/01 06:10:11;;;;;;;8.73;5.15;;;;;;;15.69;100.00;98153.41;5043445;28;20476;-74
2021/08/01 06:12:37;;;;;;;9.60;4.70;;;;;;;15.60;100.00;98149.47;5051960;28;20039;-74
2021/08/01 06:15:02;;;;;;;7.28;5.18;;;;;;;15.46;100.00;98159.91;5034875;28;20052;-75
2021/08/01 06:17:28;;;;;;;9.35;5.35;;;;;;;15.31;100.00;98150.41;5034424;28;20158;-74
2021/08/01 06:19:55;;;;;;;7.25;5.20;;;;;;;15.53;100.00;98155.91;5053281;28;20032;-75
2021/08/01 06:22:21;;;;;;;7.63;5.03;;;;;;;15.60;100.00;98149.47;5041652;28;20032;-75
2021/08/01 06:24:46;;;;;;;7.65;5.28;;;;;;;15.74;100.00;98167.94;5029560;28;20371;-71
2021/08/01 06:27:12;;;;;;;11.68;5.55;;;;;;;15.65;100.00;98171.34;5022380;28;20032;-75
2021/08/01 06:29:37;;;;;;;12.60;6.10;;;;;;;15.61;100.00;98151.09;5039438;28;20096;-75
2021/08/01 06:32:03;;;;;;;6.95;5.13;;;;;;;15.63;100.00;98147.03;5043618;28;20037;-74
2021/08/01 06:34:28;;;;;;;9.43;5.18;;;;;;;15.61;100.00;98154.66;5049866;28;20044;-75
2021/08/01 06:36:54;;;;;;;8.57;5.78;;;;;;;15.66;100.00;98159.34;5044088;28;20432;-74
2021/08/01 06:39:19;;;;;;;11.82;5.90;;;;;;;15.54;100.00;98156.75;5051790;28;20029;-74
2021/08/01 06:41:44;;;;;;;8.10;5.30;;;;;;;15.52;100.00;98148.00;5029363;28;20036;-72
2021/08/01 06:44:10;;;;;;;9.57;4.75;;;;;;;15.61;100.00;98164.72;5060321;28;20029;-74
2021/08/01 06:46:35;;;;;;;8.50;4.75;;;;;;;15.63;100.00;98182.50;5033214;28;20022;-74
2021/08/01 06:49:00;;;;;;;7.72;4.72;;;;;;;15.46;100.00;98187.16;5048545;28;20483;-75
2021/08/01 06:51:25;;;;;;;8.95;4.30;;;;;;;15.34;100.00;98190.78;5045519;28;20061;-75
2021/08/01 06:53:51;;;;;;;11.95;4.03;;;;;;;15.26;100.00;98187.69;5051036;28;20401;-75
2021/08/01 06:56:16;;;;;;;8.85;5.13;;;;;;;15.23;100.00;98172.66;5056623;28;20032;-74
2021/08/01 06:58:41;;;;;;;7.93;4.53;;;;;;;15.34;100.00;98184.53;5055039;28;20029;-74
2021/08/01 07:01:07;;;;;;;6.97;4.53;;;;;;;15.37;100.00;98196.84;5047906;28;20037;-74
2021/08/01 07:03:32;;;;;;;13.60;4.45;;;;;;;15.33;100.00;98193.78;5042838;28;20025;-74
2021/08/01 07:05:57;;;;;;;10.38;4.63;;;;;;;15.37;100.00;98192.19;5038314;28;20051;-73
2021/08/01 07:08:23;;;;;;;7.90;4.65;;;;;;;15.44;100.00;98184.69;5043744;28;20030;-74
2021/08/01 07:10:48;;;;;;;6.80;4.45;;;;;;;15.49;100.00;98175.75;5044704;28;20482;-72
2021/08/01 07:13:13;;;;;;;10.63;5.15;;;;;;;15.49;100.00;98192.94;5045914;28;20474;-76
2021/08/01 07:15:39;;;;;;;8.00;4.97;;;;;;;15.53;100.00;98176.88;5026353;28;20048;-74
2021/08/01 07:18:05;;;;;;;8.13;4.90;;;;;;;15.70;100.00;98202.25;5055044;28;20077;-74
2021/08/01 07:20:31;;;;;;;10.85;5.85;;;;;;;15.71;100.00;98184.81;5048072;28;20029;-74
2021/08/01 07:22:57;;;;;;;8.15;5.25;;;;;;;15.81;100.00;98199.69;5052998;28;20024;-75
2021/08/01 07:25:23;;;;;;;10.90;5.32;;;;;;;15.82;100.00;98202.13;5055476;28;20478;-76
2021/08/01 07:27:49;;;;;;;12.32;5.07;;;;;;;15.69;100.00;98194.31;5055373;28;20530;-72
2021/08/01 07:30:15;;;;;;;11.57;5.05;;;;;;;15.78;100.00;98196.38;5055618;28;20025;-74
2021/08/01 07:32:40;;;;;;;6.78;4.32;;;;;;;15.93;100.00;98205.84;5041111;28;20034;-76
2021/08/01 07:35:07;;;;;;;9.88;4.90;;;;;;;15.74;100.00;98205.31;5033837;28;20078;-73
2021/08/01 07:37:32;;;;;;;8.43;4.70;;;;;;;15.56;99.55;98193.59;5055383;28;20471;-75
2021/08/01 07:39:57;;;;;;;7.95;4.63;;;;;;;15.59;99.93;98207.78;5052198;28;20025;-71
2021/08/01 07:42:23;;;;;;;8.75;4.80;;;;;;;15.50;99.01;98185.56;5051174;28;20033;-74
2021/08/01 07:44:57;;;;;;;7.68;4.57;;;;;;;15.53;100.00;98207.69;5046980;28;20032;-73
2021/08/01 07:47:24;;;;;;;10.50;5.10;;;;;;;15.56;100.00;98198.19;5033716;28;20036;-75
2021/08/01 07:49:51;;;;;;;10.25;5.20;;;;;;;15.63;100.00;98200.75;5018389;28;20018;-74
2021/08/01 07:52:17;;;;;;;12.00;5.32;;;;;;;15.89;100.00;98213.69;5042442;28;20036;-74
2021/08/01 07:54:43;;;;;;;9.15;4.50;;;;;;;15.97;100.00;98220.63;5038715;28;20032;-76
2021/08/01 07:57:26;;;;;;;8.25;4.63;;;;;;;16.17;99.68;98209.16;5053927;28;20028;-72
2021/08/01 07:59:52;;;;;;;10.65;4.28;;;;;;;16.31;96.94;98217.78;5040716;28;20479;-72
2021/08/01 08:02:18;;;;;;;9.68;4.82;;;;;;;16.39;96.20;98220.06;5029391;28;20031;-75
2021/08/01 08:04:43;;;;;;;6.95;4.15;;;;;;;16.60;94.93;98215.66;5019966;28;20088;-74
2021/08/01 08:07:08;;;;;;;9.75;4.45;;;;;;;16.68;95.88;98211.63;5030099;28;20025;-76
2021/08/01 08:09:34;;;;;;;6.45;3.95;;;;;;;16.96;93.49;98197.72;5037987;28;20094;-75
2021/08/01 08:11:59;;;;;;;6.40;3.17;;;;;;;17.00;89.71;98207.06;5046956;28;20086;-75
2021/08/01 08:14:24;;;;;;;6.75;3.53;;;;;;;17.13;90.33;98202.25;5042542;28;20021;-75
2021/08/01 08:16:50;;;;;;;5.93;3.50;;;;;;;17.42;89.24;98205.47;5024231;28;20029;-76
2021/08/01 08:19:15;;;;;;;5.10;3.53;;;;;;;17.58;86.75;98218.19;5041559;28;20092;-72
2021/08/01 08:21:40;;;;;;;7.93;3.63;;;;;;;17.65;86.84;98213.28;5022019;28;20021;-72
2021/08/01 08:24:05;;;;;;;5.63;3.22;;;;;;;17.57;87.82;98200.09;5045069;28;20433;-72
2021/08/01 08:26:31;;;;;;;4.43;3.08;;;;;;;18.02;84.87;98212.44;5046305;28;20462;-72
2021/08/01 08:28:57;;;;;;;4.40;3.05;;;;;;;18.31;87.04;98214.75;5051139;28;20021;-73
2021/08/01 08:31:22;;;;;;;9.15;3.08;;;;;;;18.53;80.93;98209.09;5037614;28;20037;-73
2021/08/01 08:33:47;;;;;;;4.72;2.97;;;;;;;18.65;82.12;98195.13;5053510;28;20056;-72
2021/08/01 08:36:13;;;;;;;4.65;2.92;;;;;;;18.64;82.56;98209.94;5041147;28;20025;-73
2021/08/01 08:38:38;;;;;;;5.93;3.40;;;;;;;18.78;82.53;98216.56;5051714;28;20032;-72
2021/08/01 08:41:04;;;;;;;9.48;3.58;;;;;;;18.65;82.56;98209.66;5047126;28;20538;-72
2021/08/01 08:43:29;;;;;;;7.25;3.78;;;;;;;18.18;81.00;98214.16;5049648;28;20108;-73
2021/08/01 08:45:58;;;;;;;4.85;3.47;;;;;;;18.15;82.84;98201.00;5039873;28;20437;-71
2021/08/01 08:48:25;;;;;;;6.30;3.78;;;;;;;18.21;85.45;98215.56;5041092;28;20083;-72
2021/08/01 08:50:53;;;;;;;8.70;4.05;;;;;;;18.14;84.15;98215.78;5029555;28;20039;-73
2021/08/01 08:53:20;;;;;;;5.60;3.20;;;;;;;18.33;83.98;98224.34;5051681;28;20056;-71
2021/08/01 08:55:47;;;;;;;5.35;3.60;;;;;;;18.34;86.04;98222.44;5021471;28;20580;-71
2021/08/01 08:58:20;;;;;;;5.95;3.28;;;;;;;18.40;84.17;98224.09;5050620;28;20398;-71
2021/08/01 09:00:45;;;;;;;5.95;3.40;;;;;;;18.09;85.34;98215.75;5027399;28;20116;-71
2021/08/01 09:03:10;;;;;;;6.93;3.67;;;;;;;17.96;85.07;98217.06;5037761;28;20517;-72
2021/08/01 09:05:36;;;;;;;5.18;3.30;;;;;;;17.87;85.66;98239.75;5047441;28;20052;-72
2021/08/01 09:08:01;;;;;;;7.60;3.65;;;;;;;17.73;86.27;98231.13;5050563;28;20029;-72
2021/08/01 09:10:30;;;;;;;6.85;3.75;;;;;;;17.38;86.99;98235.25;5050228;28;20116;-72
2021/08/01 09:12:56;;;;;;;6.40;3.92;;;;;;;17.11;86.72;98226.25;5030987;28;20445;-72
2021/08/01 09:15:24;;;;;;;8.13;4.45;;;;;;;17.12;88.97;98242.41;5049979;28;20029;-71
2021/08/01 09:17:53;;;;;;;10.27;4.15;;;;;;;16.99;90.11;98245.59;5049015;28;20120;-72
2021/08/01 09:20:30;;;;;;;10.55;4.32;;;;;;;16.75;90.18;98215.81;5045065;28;20042;-72
2021/08/01 09:23:01;;;;;;;6.95;4.15;;;;;;;16.84;90.85;98247.06;5021084;28;20029;-72
2021/08/01 09:25:29;;;;;;;7.90;4.60;;;;;;;16.80;91.91;98245.13;5030259;28;20504;-73
2021/08/01 09:28:07;;;;;;;6.70;4.45;;;;;;;16.85;93.78;98247.91;5033172;28;20090;-73
2021/08/01 09:30:46;;;;;;;9.02;4.10;;;;;;;17.14;90.51;98248.47;5020301;28;20021;-73
2021/08/01 09:33:12;;;;;;;7.68;3.70;;;;;;;17.10;92.81;98241.84;5017235;28;20037;-72
2021/08/01 09:35:39;;;;;;;5.78;3.65;;;;;;;17.14;93.60;98231.25;5039160;28;20081;-72
2021/08/01 09:38:04;;;;;;;8.57;4.35;;;;;;;17.40;93.31;98245.94;5050521;28;20035;-73
2021/08/01 09:40:34;;;;;;;8.90;4.30;;;;;;;17.36;91.10;98248.38;5028740;28;20028;-72
2021/08/01 09:43:10;;;;;;;6.30;3.90;;;;;;;17.34;90.57;98239.59;5021679;28;20025;-72
2021/08/01 09:45:36;;;;;;;9.27;4.13;;;;;;;17.21;92.28;98260.00;5036254;28;20039;-72
2021/08/01 09:48:19;;;;;;;5.88;4.03;;;;;;;17.15;96.15;98261.03;5032129;28;20557;-72
2021/08/01 09:51:07;;;;;;;5.95;4.20;;;;;;;17.20;94.58;98258.34;5048844;28;20071;-73
2021/08/01 09:53:33;;;;;;;6.10;3.72;;;;;;;17.16;95.22;98242.72;5031123;28;20128;-72
2021/08/01 09:56:21;;;;;;;11.93;4.20;;;;;;;17.06;92.73;98257.94;5045985;28;20028;-73
2021/08/01 09:58:48;;;;;;;7.35;3.60;;;;;;;17.20;93.89;98250.16;5031208;28;20135;-72
2021/08/01 10:01:14;;;;;;;5.63;3.42;;;;;;;17.61;92.28;98255.13;5047165;28;20025;-72
2021/08/01 10:03:41;;;;;;;6.18;3.83;;;;;;;17.77;88.40;98250.59;5050001;28;20032;-72
2021/08/01 10:06:11;;;;;;;5.70;3.40;;;;;;;18.18;88.89;98243.44;5050385;28;20025;-72
2021/08/01 10:08:38;;;;;;;8.52;3.22;;;;;;;18.65;85.21;98241.72;5049133;28;20033;-72
2021/08/01 10:11:18;;;;;;;7.15;3.47;;;;;;;19.26;84.08;98244.59;5045685;28;20056;-72
2021/08/01 10:13:45;;;;;;;4.25;2.92;;;;;;;19.43;82.12;98247.88;5031351;28;20461;-72
2021/08/01 10:16:11;;;;;;;7.22;3.50;;;;;;;19.73;81.41;98239.91;5044274;28;20665;-72
2021/08/01 10:18:38;;;;;;;6.18;2.85;;;;;;;19.68;77.67;98232.53;5051244;28;20078;-72
2021/08/01 10:21:04;;;;;;;8.82;3.30;;;;;;;20.21;79.14;98240.38;5033529;28;20044;-72
2021/08/01 10:23:38;;;;;;;4.85;2.95;;;;;;;20.05;74.01;98209.41;5048120;28;20049;-70
2021/08/01 10:26:06;;;;;;;5.05;3.10;;;;;;;20.04;74.42;98244.28;5048877;28;20026;-72
2021/08/01 10:28:32;;;;;;;5.53;2.90;;;;;;;20.12;72.89;98234.59;5036746;28;20033;-72
2021/08/01 10:31:04;;;;;;;4.43;2.70;;;;;;;19.77;74.62;98230.88;5049012;28;20030;-72
2021/08/01 10:33:51;;;;;;;5.07;3.15;;;;;;;20.48;74.78;98224.31;5030808;28;20098;-72
2021/08/01 10:36:29;;;;;;;3.40;2.33;;;;;;;20.86;73.75;98234.88;5038932;28;20028;-72
2021/08/01 10:39:00;;;;;;;5.88;2.47;;;;;;;20.26;73.54;98232.94;5048331;28;20025;-72
2021/08/01 10:41:30;;;;;;;3.67;2.70;;;;;;;20.38;70.61;98221.59;5049040;28;20564;-72
2021/08/01 10:43:59;;;;;;;4.32;2.70;;;;;;;20.74;72.13;98230.53;5046313;28;20063;-70
2021/08/01 10:46:25;;;;;;;5.78;2.50;;;;;;;21.49;67.72;98218.47;5045840;28;20081;-70
2021/08/01 10:48:50;;;;;;;5.55;2.45;;;;;;;21.63;67.60;98211.16;5024268;28;20025;-70
2021/08/01 10:51:15;;;;;;;4.00;2.13;;;;;;;21.80;67.52;98221.75;5029428;28;20060;-70
2021/08/01 10:53:41;;;;;;;3.80;2.35;;;;;;;22.12;64.84;98213.97;5042094;28;20085;-70
2021/08/01 10:56:06;;;;;;;7.07;2.50;;;;;;;22.39;64.35;98216.97;5041392;28;20028;-70
2021/08/01 10:58:36;;;;;;;9.70;2.50;;;;;;;22.78;63.02;98217.84;5044494;28;20035;-70
2021/08/01 11:01:03;;;;;;;8.82;2.75;;;;;;;22.83;62.41;98215.81;5030981;28;20113;-70
2021/08/01 11:03:31;;;;;;;5.85;2.30;;;;;;;23.04;60.84;98210.03;5039753;28;20035;-71
2021/08/01 11:05:57;;;;;;;3.25;2.13;;;;;;;23.72;59.33;98208.66;5020752;28;20533;-71
2021/08/01 11:08:23;;;;;;;3.58;1.90;;;;;;;24.15;58.26;98198.13;5029856;28;20127;-70
2021/08/01 11:11:16;;;;;;;5.13;2.20;;;;;;;23.49;61.27;98211.22;5046983;28;20032;-71
2021/08/01 11:13:45;;;;;;;4.03;2.15;;;;;;;22.85;59.26;98207.28;5030913;28;20064;-70
2021/08/01 11:16:13;;;;;;;4.80;2.05;;;;;;;23.16;59.90;98216.75;5025242;28;20029;-70
2021/08/01 11:18:46;;;;;;;3.42;2.17;;;;;;;22.45;61.35;98202.03;5043412;28;20497;-70
2021/08/01 11:21:13;;;;;;;6.55;2.40;;;;;;;22.78;59.90;98196.59;5041156;28;20048;-70
2021/08/01 11:23:45;;;;;;;3.95;2.40;;;;;;;23.24;59.46;98208.88;5046839;28;20129;-71
2021/08/01 11:26:16;;;;;;;5.45;2.28;;;;;;;22.86;59.50;98203.38;5023564;28;20021;-70
2021/08/01 11:28:44;;;;;;;5.57;2.17;;;;;;;22.61;59.60;98196.28;5028458;28;20043;-70
2021/08/01 11:31:19;;;;;;;7.35;1.90;;;;;;;22.62;59.82;98189.66;5040477;28;20513;-71
2021/08/01 11:33:47;;;;;;;4.80;2.15;;;;;;;23.01;59.54;98207.88;5048353;28;20040;-71